sensor_id;sensor_type;location;lat;lon;timestamp;temperature;humidity
22544;DHT22;11438;52.044;8.716;2023-11-21T00:01:54;11.50;99.90
22544;DHT22;11438;52.044;8.716;2023-11-21T00:04:20;11.50;99.90
22544;DHT22;11438;52.044;8.716;2023-11-21T00:06:46;11.50;99.90
22544;DHT22;11438;52.044;8.716;2023-11-21T00:09:13;11.60;99.90
22544;DHT22;11438;52.044;8.716;2023-11-21T00:11:41;11.60;99.90
22544;DHT22;11438;52.044;8.716;2023-11-21T00:14:06;11.60;99.90
22544;DHT22;11438;52.044;8.716;2023-11-21T00:16:33;11.60;99.90
22544;DHT22;11438;52.044;8.716;2023-11-21T00:18:59;11.60;99.90
22544;DHT22;11438;52.044;8.716;2023-11-21T00:21:25;11.60;99.90
22544;DHT22;11438;52.044;8.716;2023-11-21T00:23:50;11.60;99.90
22544;DHT22;11438;52.044;8.716;2023-11-21T00:26:16;11.70;99.90
22544;DHT22;11438;52.044;8.716;2023-11-21T00:28:41;11.70;99.90
22544;DHT22;11438;52.044;8.716;2023-11-21T00:31:07;11.70;99.90
22544;DHT22;11438;52.044;8.716;2023-11-21T00:33:32;11.70;99.90
22544;DHT22;11438;52.044;8.716;2023-11-21T00:35:58;11.70;99.90
22544;DHT22;11438;52.044;8.716;2023-11-21T00:38:23;11.70;99.90
22544;DHT22;11438;52.044;8.716;2023-11-21T00:40:49;11.80;99.90
22544;DHT22;11438;52.044;8.716;2023-11-21T00:43:15;11.80;99.90
22544;DHT22;11438;52.044;8.716;2023-11-21T00:45:40;11.80;99.90
22544;DHT22;11438;52.044;8.716;2023-11-21T00:48:06;11.80;99.90
22544;DHT22;11438;52.044;8.716;2023-11-21T00:50:33;11.80;99.90
22544;DHT22;11438;52.044;8.716;2023-11-21T00:52:59;11.80;99.90
22544;DHT22;11438;52.044;8.716;2023-11-21T00:55:24;11.80;99.90
22544;DHT22;11438;52.044;8.716;2023-11-21T00:57:50;11.90;99.90
22544;DHT22;11438;52.044;8.716;2023-11-21T01:00:16;11.90;99.90
22544;DHT22;11438;52.044;8.716;2023-11-21T01:02:44;11.90;99.90
22544;DHT22;11438;52.044;8.716;2023-11-21T01:05:10;11.90;99.90
22544;DHT22;11438;52.044;8.716;2023-11-21T01:07:36;11.90;99.90
22544;DHT22;11438;52.044;8.716;2023-11-21T01:10:03;11.90;99.90
22544;DHT22;11438;52.044;8.716;2023-11-21T01:12:31;11.90;99.90
22544;DHT22;11438;52.044;8.716;2023-11-21T01:14:56;12.00;99.90
22544;DHT22;11438;52.044;8.716;2023-11-21T01:17:25;12.00;99.90
22544;DHT22;11438;52.044;8.716;2023-11-21T01:19:51;12.00;99.90
22544;DHT22;11438;52.044;8.716;2023-11-21T01:22:16;12.00;99.90
22544;DHT22;11438;52.044;8.716;2023-11-21T01:24:43;12.00;99.90
22544;DHT22;11438;52.044;8.716;2023-11-21T01:27:08;12.00;99.90
22544;DHT22;11438;52.044;8.716;2023-11-21T01:29:34;12.00;99.90
22544;DHT22;11438;52.044;8.716;2023-11-21T01:32:02;12.10;99.90
22544;DHT22;11438;52.044;8.716;2023-11-21T01:34:27;12.00;99.90
22544;DHT22;11438;52.044;8.716;2023-11-21T01:36:53;12.00;99.90
22544;DHT22;11438;52.044;8.716;2023-11-21T01:39:19;12.10;99.90
22544;DHT22;11438;52.044;8.716;2023-11-21T01:41:49;12.10;99.90
22544;DHT22;11438;52.044;8.716;2023-11-21T01:44:15;12.10;99.90
22544;DHT22;11438;52.044;8.716;2023-11-21T01:46:42;12.10;99.90
22544;DHT22;11438;52.044;8.716;2023-11-21T01:49:09;12.10;99.90
22544;DHT22;11438;52.044;8.716;2023-11-21T01:51:36;12.10;99.90
22544;DHT22;11438;52.044;8.716;2023-11-21T01:54:03;12.10;99.90
22544;DHT22;11438;52.044;8.716;2023-11-21T01:56:30;12.10;99.90
22544;DHT22;11438;52.044;8.716;2023-11-21T01:58:57;12.10;99.90
22544;DHT22;11438;52.044;8.716;2023-11-21T02:01:22;12.10;99.90
22544;DHT22;11438;52.044;8.716;2023-11-21T02:03:48;12.20;99.90
22544;DHT22;11438;52.044;8.716;2023-11-21T02:06:14;12.20;99.90
22544;DHT22;11438;52.044;8.716;2023-11-21T02:08:39;12.20;99.90
22544;DHT22;11438;52.044;8.716;2023-11-21T02:11:05;12.20;99.90
22544;DHT22;11438;52.044;8.716;2023-11-21T02:13:31;12.20;99.90
22544;DHT22;11438;52.044;8.716;2023-11-21T02:15:58;12.20;99.90
22544;DHT22;11438;52.044;8.716;2023-11-21T02:18:23;12.20;99.90
22544;DHT22;11438;52.044;8.716;2023-11-21T02:20:49;12.20;99.90
22544;DHT22;11438;52.044;8.716;2023-11-21T02:23:14;12.20;99.90
22544;DHT22;11438;52.044;8.716;2023-11-21T02:25:40;12.20;99.90
22544;DHT22;11438;52.044;8.716;2023-11-21T02:28:08;12.20;99.90
22544;DHT22;11438;52.044;8.716;2023-11-21T02:30:33;12.20;99.90
22544;DHT22;11438;52.044;8.716;2023-11-21T02:33:00;12.20;99.90
22544;DHT22;11438;52.044;8.716;2023-11-21T02:35:26;12.20;99.90
22544;DHT22;11438;52.044;8.716;2023-11-21T02:37:52;12.20;99.90
22544;DHT22;11438;52.044;8.716;2023-11-21T02:40:18;12.20;99.90
22544;DHT22;11438;52.044;8.716;2023-11-21T02:42:48;12.20;99.90
22544;DHT22;11438;52.044;8.716;2023-11-21T02:45:17;12.20;99.90
22544;DHT22;11438;52.044;8.716;2023-11-21T02:47:43;12.20;99.90
22544;DHT22;11438;52.044;8.716;2023-11-21T02:50:09;12.20;99.90
22544;DHT22;11438;52.044;8.716;2023-11-21T02:52:38;12.20;99.90
22544;DHT22;11438;52.044;8.716;2023-11-21T02:55:05;12.20;99.90
22544;DHT22;11438;52.044;8.716;2023-11-21T02:57:32;12.20;99.90
22544;DHT22;11438;52.044;8.716;2023-11-21T02:59:58;12.20;99.90
22544;DHT22;11438;52.044;8.716;2023-11-21T03:02:25;12.20;99.90
22544;DHT22;11438;52.044;8.716;2023-11-21T03:04:51;12.20;99.90
22544;DHT22;11438;52.044;8.716;2023-11-21T03:07:17;12.20;99.90
22544;DHT22;11438;52.044;8.716;2023-11-21T03:09:44;12.20;99.90
22544;DHT22;11438;52.044;8.716;2023-11-21T03:12:10;12.20;99.90
22544;DHT22;11438;52.044;8.716;2023-11-21T03:14:37;12.20;99.90
22544;DHT22;11438;52.044;8.716;2023-11-21T03:17:03;12.20;99.90
22544;DHT22;11438;52.044;8.716;2023-11-21T03:19:30;12.20;99.90
22544;DHT22;11438;52.044;8.716;2023-11-21T03:21:56;12.20;99.90
22544;DHT22;11438;52.044;8.716;2023-11-21T03:24:22;12.20;99.90
22544;DHT22;11438;52.044;8.716;2023-11-21T03:26:48;12.30;99.90
22544;DHT22;11438;52.044;8.716;2023-11-21T03:29:14;12.30;99.90
22544;DHT22;11438;52.044;8.716;2023-11-21T03:31:40;12.30;99.90
22544;DHT22;11438;52.044;8.716;2023-11-21T03:34:06;12.30;99.90
22544;DHT22;11438;52.044;8.716;2023-11-21T03:36:31;12.30;99.90
22544;DHT22;11438;52.044;8.716;2023-11-21T03:38:57;12.30;99.90
22544;DHT22;11438;52.044;8.716;2023-11-21T03:41:22;12.30;99.90
22544;DHT22;11438;52.044;8.716;2023-11-21T03:43:48;12.30;99.90
22544;DHT22;11438;52.044;8.716;2023-11-21T03:46:14;12.30;99.90
22544;DHT22;11438;52.044;8.716;2023-11-21T03:48:39;12.40;99.90
22544;DHT22;11438;52.044;8.716;2023-11-21T03:51:05;12.30;99.90
22544;DHT22;11438;52.044;8.716;2023-11-21T03:53:31;12.40;99.90
22544;DHT22;11438;52.044;8.716;2023-11-21T03:55:57;12.40;99.90
22544;DHT22;11438;52.044;8.716;2023-11-21T03:58:23;12.40;99.90
22544;DHT22;11438;52.044;8.716;2023-11-21T04:00:48;12.40;99.90
22544;DHT22;11438;52.044;8.716;2023-11-21T04:03:17;12.40;99.90
22544;DHT22;11438;52.044;8.716;2023-11-21T04:05:42;12.40;99.90
22544;DHT22;11438;52.044;8.716;2023-11-21T04:08:08;12.50;99.90
22544;DHT22;11438;52.044;8.716;2023-11-21T04:10:33;12.50;99.90
22544;DHT22;11438;52.044;8.716;2023-11-21T04:12:59;12.50;99.90
22544;DHT22;11438;52.044;8.716;2023-11-21T04:15:25;12.50;99.90
22544;DHT22;11438;52.044;8.716;2023-11-21T04:17:51;12.50;99.90
22544;DHT22;11438;52.044;8.716;2023-11-21T04:20:17;12.50;99.90
22544;DHT22;11438;52.044;8.716;2023-11-21T04:22:44;12.50;99.90
22544;DHT22;11438;52.044;8.716;2023-11-21T04:25:14;12.50;99.90
22544;DHT22;11438;52.044;8.716;2023-11-21T04:27:40;12.50;99.90
22544;DHT22;11438;52.044;8.716;2023-11-21T04:30:09;12.50;99.90
22544;DHT22;11438;52.044;8.716;2023-11-21T04:32:35;12.50;99.90
22544;DHT22;11438;52.044;8.716;2023-11-21T04:35:01;12.50;99.90
22544;DHT22;11438;52.044;8.716;2023-11-21T04:37:26;12.50;99.90
22544;DHT22;11438;52.044;8.716;2023-11-21T04:39:52;12.50;99.90
22544;DHT22;11438;52.044;8.716;2023-11-21T04:42:17;12.50;99.90
22544;DHT22;11438;52.044;8.716;2023-11-21T04:44:43;12.60;99.90
22544;DHT22;11438;52.044;8.716;2023-11-21T04:47:09;12.50;99.90
22544;DHT22;11438;52.044;8.716;2023-11-21T04:49:35;12.50;99.90
22544;DHT22;11438;52.044;8.716;2023-11-21T04:52:00;12.60;99.90
22544;DHT22;11438;52.044;8.716;2023-11-21T04:54:27;12.60;99.90
22544;DHT22;11438;52.044;8.716;2023-11-21T04:56:52;12.60;99.90
22544;DHT22;11438;52.044;8.716;2023-11-21T04:59:18;12.60;99.90
22544;DHT22;11438;52.044;8.716;2023-11-21T05:01:44;12.60;99.90
22544;DHT22;11438;52.044;8.716;2023-11-21T05:04:09;12.60;99.90
22544;DHT22;11438;52.044;8.716;2023-11-21T05:06:35;12.60;99.90
22544;DHT22;11438;52.044;8.716;2023-11-21T05:09:00;12.60;99.90
22544;DHT22;11438;52.044;8.716;2023-11-21T05:11:26;12.60;99.90
22544;DHT22;11438;52.044;8.716;2023-11-21T05:13:52;12.60;99.90
22544;DHT22;11438;52.044;8.716;2023-11-21T05:16:19;12.50;99.90
22544;DHT22;11438;52.044;8.716;2023-11-21T05:18:45;12.50;99.90
22544;DHT22;11438;52.044;8.716;2023-11-21T05:21:11;12.50;99.90
22544;DHT22;11438;52.044;8.716;2023-11-21T05:23:36;12.50;99.90
22544;DHT22;11438;52.044;8.716;2023-11-21T05:26:03;12.50;99.90
22544;DHT22;11438;52.044;8.716;2023-11-21T05:28:28;12.50;99.90
22544;DHT22;11438;52.044;8.716;2023-11-21T05:30:54;12.50;99.90
22544;DHT22;11438;52.044;8.716;2023-11-21T05:33:20;12.50;99.90
22544;DHT22;11438;52.044;8.716;2023-11-21T05:35:46;12.50;99.90
22544;DHT22;11438;52.044;8.716;2023-11-21T05:38:13;12.50;99.90
22544;DHT22;11438;52.044;8.716;2023-11-21T05:40:39;12.50;99.90
22544;DHT22;11438;52.044;8.716;2023-11-21T05:43:04;12.50;99.90
22544;DHT22;11438;52.044;8.716;2023-11-21T05:45:30;12.50;99.90
22544;DHT22;11438;52.044;8.716;2023-11-21T05:47:57;12.50;99.90
22544;DHT22;11438;52.044;8.716;2023-11-21T05:50:22;12.50;99.90
22544;DHT22;11438;52.044;8.716;2023-11-21T05:52:48;12.50;99.90
22544;DHT22;11438;52.044;8.716;2023-11-21T05:55:14;12.50;99.90
22544;DHT22;11438;52.044;8.716;2023-11-21T05:57:41;12.50;99.90
22544;DHT22;11438;52.044;8.716;2023-11-21T06:00:11;12.50;99.90
22544;DHT22;11438;52.044;8.716;2023-11-21T06:02:55;12.50;99.90
22544;DHT22;11438;52.044;8.716;2023-11-21T06:05:24;12.50;99.90
22544;DHT22;11438;52.044;8.716;2023-11-21T06:07:50;12.50;99.90
22544;DHT22;11438;52.044;8.716;2023-11-21T06:10:16;12.50;99.90
22544;DHT22;11438;52.044;8.716;2023-11-21T06:12:43;12.50;99.90
22544;DHT22;11438;52.044;8.716;2023-11-21T06:15:10;12.50;99.90
22544;DHT22;11438;52.044;8.716;2023-11-21T06:17:39;12.50;99.90
22544;DHT22;11438;52.044;8.716;2023-11-21T06:20:08;12.50;99.90
22544;DHT22;11438;52.044;8.716;2023-11-21T06:22:41;12.50;99.90
22544;DHT22;11438;52.044;8.716;2023-11-21T06:25:07;12.50;99.90
22544;DHT22;11438;52.044;8.716;2023-11-21T06:27:44;12.50;99.90
22544;DHT22;11438;52.044;8.716;2023-11-21T06:30:10;12.50;99.90
22544;DHT22;11438;52.044;8.716;2023-11-21T06:32:37;12.50;99.90
22544;DHT22;11438;52.044;8.716;2023-11-21T06:35:04;12.50;99.90
22544;DHT22;11438;52.044;8.716;2023-11-21T06:37:30;12.50;99.90
22544;DHT22;11438;52.044;8.716;2023-11-21T06:39:57;12.50;99.90
22544;DHT22;11438;52.044;8.716;2023-11-21T06:42:23;12.50;99.90
22544;DHT22;11438;52.044;8.716;2023-11-21T06:44:49;12.50;99.90
22544;DHT22;11438;52.044;8.716;2023-11-21T06:47:17;12.50;99.90
22544;DHT22;11438;52.044;8.716;2023-11-21T06:49:43;12.50;99.90
22544;DHT22;11438;52.044;8.716;2023-11-21T06:52:09;12.50;99.90
22544;DHT22;11438;52.044;8.716;2023-11-21T06:54:34;12.50;99.90
22544;DHT22;11438;52.044;8.716;2023-11-21T06:57:02;12.60;99.90
22544;DHT22;11438;52.044;8.716;2023-11-21T06:59:31;12.60;99.90
22544;DHT22;11438;52.044;8.716;2023-11-21T07:01:57;12.60;99.90
22544;DHT22;11438;52.044;8.716;2023-11-21T07:04:22;12.60;99.90
22544;DHT22;11438;52.044;8.716;2023-11-21T07:06:48;12.60;99.90
22544;DHT22;11438;52.044;8.716;2023-11-21T07:09:13;12.60;99.90
22544;DHT22;11438;52.044;8.716;2023-11-21T07:11:39;12.60;99.90
22544;DHT22;11438;52.044;8.716;2023-11-21T07:14:04;12.60;99.90
22544;DHT22;11438;52.044;8.716;2023-11-21T07:16:35;12.60;99.90
22544;DHT22;11438;52.044;8.716;2023-11-21T07:19:05;12.60;99.90
22544;DHT22;11438;52.044;8.716;2023-11-21T07:21:34;12.60;99.90
22544;DHT22;11438;52.044;8.716;2023-11-21T07:24:04;12.60;99.90
22544;DHT22;11438;52.044;8.716;2023-11-21T07:26:30;12.60;99.90
22544;DHT22;11438;52.044;8.716;2023-11-21T07:28:56;12.60;99.90
22544;DHT22;11438;52.044;8.716;2023-11-21T07:31:22;12.60;99.90
22544;DHT22;11438;52.044;8.716;2023-11-21T07:33:48;12.60;99.90
22544;DHT22;11438;52.044;8.716;2023-11-21T07:36:14;12.60;99.90
22544;DHT22;11438;52.044;8.716;2023-11-21T07:38:41;12.60;99.90
22544;DHT22;11438;52.044;8.716;2023-11-21T07:41:07;12.50;99.90
22544;DHT22;11438;52.044;8.716;2023-11-21T07:43:36;12.50;99.90
22544;DHT22;11438;52.044;8.716;2023-11-21T07:46:04;12.50;99.90
22544;DHT22;11438;52.044;8.716;2023-11-21T07:48:34;12.50;99.90
22544;DHT22;11438;52.044;8.716;2023-11-21T07:51:02;12.60;99.90
22544;DHT22;11438;52.044;8.716;2023-11-21T07:53:29;12.50;99.90
22544;DHT22;11438;52.044;8.716;2023-11-21T07:56:02;12.50;99.90
22544;DHT22;11438;52.044;8.716;2023-11-21T07:58:27;12.50;99.90
22544;DHT22;11438;52.044;8.716;2023-11-21T08:00:53;12.40;99.90
22544;DHT22;11438;52.044;8.716;2023-11-21T08:03:19;12.50;99.90
22544;DHT22;11438;52.044;8.716;2023-11-21T08:05:44;12.50;99.90
22544;DHT22;11438;52.044;8.716;2023-11-21T08:08:10;12.40;99.90
22544;DHT22;11438;52.044;8.716;2023-11-21T08:10:36;12.50;99.90
22544;DHT22;11438;52.044;8.716;2023-11-21T08:13:02;12.40;99.90
22544;DHT22;11438;52.044;8.716;2023-11-21T08:15:29;12.40;99.90
22544;DHT22;11438;52.044;8.716;2023-11-21T08:17:54;12.40;99.90
22544;DHT22;11438;52.044;8.716;2023-11-21T08:20:20;12.40;99.90
22544;DHT22;11438;52.044;8.716;2023-11-21T08:22:47;12.40;99.90
22544;DHT22;11438;52.044;8.716;2023-11-21T08:25:13;12.40;99.90
22544;DHT22;11438;52.044;8.716;2023-11-21T08:27:39;12.30;99.90
22544;DHT22;11438;52.044;8.716;2023-11-21T08:30:05;12.30;99.90
22544;DHT22;11438;52.044;8.716;2023-11-21T08:32:31;12.30;99.90
22544;DHT22;11438;52.044;8.716;2023-11-21T08:34:58;12.40;99.90
22544;DHT22;11438;52.044;8.716;2023-11-21T08:37:24;12.40;99.90
22544;DHT22;11438;52.044;8.716;2023-11-21T08:39:50;12.40;99.90
22544;DHT22;11438;52.044;8.716;2023-11-21T08:42:18;12.40;99.90
22544;DHT22;11438;52.044;8.716;2023-11-21T08:44:43;12.40;99.90
22544;DHT22;11438;52.044;8.716;2023-11-21T08:47:09;12.40;99.90
22544;DHT22;11438;52.044;8.716;2023-11-21T08:49:34;12.40;99.90
22544;DHT22;11438;52.044;8.716;2023-11-21T08:52:00;12.40;99.90
22544;DHT22;11438;52.044;8.716;2023-11-21T08:54:26;12.40;99.90
22544;DHT22;11438;52.044;8.716;2023-11-21T08:56:52;12.40;99.90
22544;DHT22;11438;52.044;8.716;2023-11-21T08:59:18;12.40;99.90
22544;DHT22;11438;52.044;8.716;2023-11-21T09:01:45;12.40;99.90
22544;DHT22;11438;52.044;8.716;2023-11-21T09:04:10;12.40;99.90
22544;DHT22;11438;52.044;8.716;2023-11-21T09:06:36;12.40;99.90
22544;DHT22;11438;52.044;8.716;2023-11-21T09:09:01;12.40;99.90
22544;DHT22;11438;52.044;8.716;2023-11-21T09:11:27;12.40;99.90
22544;DHT22;11438;52.044;8.716;2023-11-21T09:13:59;12.40;99.90
22544;DHT22;11438;52.044;8.716;2023-11-21T09:16:24;12.50;99.90
22544;DHT22;11438;52.044;8.716;2023-11-21T09:18:50;12.40;99.90
22544;DHT22;11438;52.044;8.716;2023-11-21T09:21:15;12.50;99.90
22544;DHT22;11438;52.044;8.716;2023-11-21T09:23:42;12.50;99.90
22544;DHT22;11438;52.044;8.716;2023-11-21T09:26:08;12.50;99.90
22544;DHT22;11438;52.044;8.716;2023-11-21T09:28:33;12.50;99.90
22544;DHT22;11438;52.044;8.716;2023-11-21T09:31:00;12.50;99.90
22544;DHT22;11438;52.044;8.716;2023-11-21T09:33:28;12.50;99.90
22544;DHT22;11438;52.044;8.716;2023-11-21T09:35:55;12.50;99.90
22544;DHT22;11438;52.044;8.716;2023-11-21T09:38:21;12.50;99.90
22544;DHT22;11438;52.044;8.716;2023-11-21T09:40:46;12.50;99.90
22544;DHT22;11438;52.044;8.716;2023-11-21T09:43:18;12.50;99.90
22544;DHT22;11438;52.044;8.716;2023-11-21T09:45:49;12.50;99.90
22544;DHT22;11438;52.044;8.716;2023-11-21T09:48:20;12.50;99.90
22544;DHT22;11438;52.044;8.716;2023-11-21T09:50:47;12.50;99.90
22544;DHT22;11438;52.044;8.716;2023-11-21T09:53:20;12.40;99.90
22544;DHT22;11438;52.044;8.716;2023-11-21T09:55:51;12.40;99.90
22544;DHT22;11438;52.044;8.716;2023-11-21T09:58:17;12.40;99.90
22544;DHT22;11438;52.044;8.716;2023-11-21T10:00:48;12.40;99.90
22544;DHT22;11438;52.044;8.716;2023-11-21T10:03:15;12.40;99.90
22544;DHT22;11438;52.044;8.716;2023-11-21T10:05:45;12.40;99.90
22544;DHT22;11438;52.044;8.716;2023-11-21T10:08:12;12.30;99.90
22544;DHT22;11438;52.044;8.716;2023-11-21T10:10:45;12.30;99.90
22544;DHT22;11438;52.044;8.716;2023-11-21T10:13:12;12.30;99.90
22544;DHT22;11438;52.044;8.716;2023-11-21T10:15:38;12.30;99.90
22544;DHT22;11438;52.044;8.716;2023-11-21T10:18:09;12.20;99.90
22544;DHT22;11438;52.044;8.716;2023-11-21T10:20:35;12.20;99.90
22544;DHT22;11438;52.044;8.716;2023-11-21T10:23:03;12.20;99.90
22544;DHT22;11438;52.044;8.716;2023-11-21T10:25:30;12.20;99.90
22544;DHT22;11438;52.044;8.716;2023-11-21T10:28:02;12.10;99.90
22544;DHT22;11438;52.044;8.716;2023-11-21T10:30:34;12.10;99.90
22544;DHT22;11438;52.044;8.716;2023-11-21T10:33:04;12.10;99.90
22544;DHT22;11438;52.044;8.716;2023-11-21T10:35:42;12.00;99.90
22544;DHT22;11438;52.044;8.716;2023-11-21T10:38:12;12.00;99.90
22544;DHT22;11438;52.044;8.716;2023-11-21T10:40:42;12.00;99.90
22544;DHT22;11438;52.044;8.716;2023-11-21T10:43:11;12.00;99.90
22544;DHT22;11438;52.044;8.716;2023-11-21T10:45:40;12.00;99.90
22544;DHT22;11438;52.044;8.716;2023-11-21T10:48:07;12.00;99.90
22544;DHT22;11438;52.044;8.716;2023-11-21T10:50:43;11.90;99.90
22544;DHT22;11438;52.044;8.716;2023-11-21T10:53:09;12.00;99.90
22544;DHT22;11438;52.044;8.716;2023-11-21T10:55:35;12.00;99.90
22544;DHT22;11438;52.044;8.716;2023-11-21T10:58:02;12.00;99.90
22544;DHT22;11438;52.044;8.716;2023-11-21T11:00:30;12.00;99.90
22544;DHT22;11438;52.044;8.716;2023-11-21T11:02:56;12.00;99.90
22544;DHT22;11438;52.044;8.716;2023-11-21T11:05:24;12.00;99.90
22544;DHT22;11438;52.044;8.716;2023-11-21T11:07:53;12.00;99.90
22544;DHT22;11438;52.044;8.716;2023-11-21T11:10:25;12.00;99.90
22544;DHT22;11438;52.044;8.716;2023-11-21T11:12:53;12.00;99.90
22544;DHT22;11438;52.044;8.716;2023-11-21T11:15:19;12.00;99.90
22544;DHT22;11438;52.044;8.716;2023-11-21T11:17:45;12.00;99.90
22544;DHT22;11438;52.044;8.716;2023-11-21T11:20:13;12.00;99.90
22544;DHT22;11438;52.044;8.716;2023-11-21T11:26:04;12.00;99.90
22544;DHT22;11438;52.044;8.716;2023-11-21T11:28:47;12.00;99.90
22544;DHT22;11438;52.044;8.716;2023-11-21T11:31:26;12.00;99.90
22544;DHT22;11438;52.044;8.716;2023-11-21T11:34:02;12.00;99.90
22544;DHT22;11438;52.044;8.716;2023-11-21T11:36:40;12.00;99.90
22544;DHT22;11438;52.044;8.716;2023-11-21T11:39:41;12.00;99.90
22544;DHT22;11438;52.044;8.716;2023-11-21T11:42:11;12.00;99.90
22544;DHT22;11438;52.044;8.716;2023-11-21T11:47:15;12.00;99.90
22544;DHT22;11438;52.044;8.716;2023-11-21T11:52:46;12.00;99.90
22544;DHT22;11438;52.044;8.716;2023-11-21T11:55:13;12.00;99.90
22544;DHT22;11438;52.044;8.716;2023-11-21T11:57:41;11.90;99.90
22544;DHT22;11438;52.044;8.716;2023-11-21T12:02:37;11.90;99.90
22544;DHT22;11438;52.044;8.716;2023-11-21T12:05:13;11.90;99.90
22544;DHT22;11438;52.044;8.716;2023-11-21T12:07:59;11.90;99.90
22544;DHT22;11438;52.044;8.716;2023-11-21T12:10:30;11.90;99.90
22544;DHT22;11438;52.044;8.716;2023-11-21T12:12:58;11.90;99.90
22544;DHT22;11438;52.044;8.716;2023-11-21T12:15:24;11.90;99.90
22544;DHT22;11438;52.044;8.716;2023-11-21T12:17:51;11.90;99.90
22544;DHT22;11438;52.044;8.716;2023-11-21T12:20:22;11.90;99.90
22544;DHT22;11438;52.044;8.716;2023-11-21T12:22:50;11.90;99.90
22544;DHT22;11438;52.044;8.716;2023-11-21T12:25:17;11.80;99.90
22544;DHT22;11438;52.044;8.716;2023-11-21T12:27:48;11.80;99.90
22544;DHT22;11438;52.044;8.716;2023-11-21T12:30:15;11.80;99.90
22544;DHT22;11438;52.044;8.716;2023-11-21T12:32:49;11.80;99.90
22544;DHT22;11438;52.044;8.716;2023-11-21T12:35:15;11.70;99.90
22544;DHT22;11438;52.044;8.716;2023-11-21T12:37:41;11.70;99.90
22544;DHT22;11438;52.044;8.716;2023-11-21T12:40:10;11.70;99.90
22544;DHT22;11438;52.044;8.716;2023-11-21T12:42:42;11.70;99.90
22544;DHT22;11438;52.044;8.716;2023-11-21T12:47:59;11.70;99.90
22544;DHT22;11438;52.044;8.716;2023-11-21T12:50:30;11.70;99.90
22544;DHT22;11438;52.044;8.716;2023-11-21T12:53:00;11.70;99.90
22544;DHT22;11438;52.044;8.716;2023-11-21T12:55:30;11.70;99.90
22544;DHT22;11438;52.044;8.716;2023-11-21T12:57:56;11.70;99.90
22544;DHT22;11438;52.044;8.716;2023-11-21T13:00:32;11.80;99.90
22544;DHT22;11438;52.044;8.716;2023-11-21T13:02:59;11.80;99.90
22544;DHT22;11438;52.044;8.716;2023-11-21T13:05:27;11.80;99.90
22544;DHT22;11438;52.044;8.716;2023-11-21T13:07:57;11.80;99.90
22544;DHT22;11438;52.044;8.716;2023-11-21T13:10:24;11.90;99.90
22544;DHT22;11438;52.044;8.716;2023-11-21T13:12:57;11.90;99.90
22544;DHT22;11438;52.044;8.716;2023-11-21T13:15:24;11.90;99.90
22544;DHT22;11438;52.044;8.716;2023-11-21T13:17:51;11.90;99.90
22544;DHT22;11438;52.044;8.716;2023-11-21T13:20:17;11.90;99.90
22544;DHT22;11438;52.044;8.716;2023-11-21T13:22:56;11.90;99.90
22544;DHT22;11438;52.044;8.716;2023-11-21T13:25:29;11.90;99.90
22544;DHT22;11438;52.044;8.716;2023-11-21T13:27:55;11.90;99.90
22544;DHT22;11438;52.044;8.716;2023-11-21T13:30:21;11.90;99.90
22544;DHT22;11438;52.044;8.716;2023-11-21T13:32:52;12.00;99.90
22544;DHT22;11438;52.044;8.716;2023-11-21T13:35:18;12.00;99.90
22544;DHT22;11438;52.044;8.716;2023-11-21T13:37:52;12.00;99.90
22544;DHT22;11438;52.044;8.716;2023-11-21T13:40:22;12.00;99.90
22544;DHT22;11438;52.044;8.716;2023-11-21T13:42:51;12.00;99.90
22544;DHT22;11438;52.044;8.716;2023-11-21T13:45:23;12.00;99.90
22544;DHT22;11438;52.044;8.716;2023-11-21T13:47:51;12.00;99.90
22544;DHT22;11438;52.044;8.716;2023-11-21T13:50:18;12.10;99.90
22544;DHT22;11438;52.044;8.716;2023-11-21T13:52:49;12.10;99.90
22544;DHT22;11438;52.044;8.716;2023-11-21T13:55:16;12.10;99.90
22544;DHT22;11438;52.044;8.716;2023-11-21T13:57:42;12.10;99.90
22544;DHT22;11438;52.044;8.716;2023-11-21T14:00:18;12.00;99.90
22544;DHT22;11438;52.044;8.716;2023-11-21T14:03:07;12.00;99.90
22544;DHT22;11438;52.044;8.716;2023-11-21T14:05:43;12.00;99.90
22544;DHT22;11438;52.044;8.716;2023-11-21T14:08:10;12.00;99.90
22544;DHT22;11438;52.044;8.716;2023-11-21T14:10:37;11.90;99.90
22544;DHT22;11438;52.044;8.716;2023-11-21T14:13:09;11.90;99.90
22544;DHT22;11438;52.044;8.716;2023-11-21T14:15:36;11.90;99.90
22544;DHT22;11438;52.044;8.716;2023-11-21T14:18:08;11.90;99.90
22544;DHT22;11438;52.044;8.716;2023-11-21T14:20:40;11.80;99.90
22544;DHT22;11438;52.044;8.716;2023-11-21T14:23:07;11.80;99.90
22544;DHT22;11438;52.044;8.716;2023-11-21T14:25:34;11.80;99.90
22544;DHT22;11438;52.044;8.716;2023-11-21T14:27:59;11.70;99.90
22544;DHT22;11438;52.044;8.716;2023-11-21T14:30:25;11.70;99.90
22544;DHT22;11438;52.044;8.716;2023-11-21T14:32:52;11.70;99.90
22544;DHT22;11438;52.044;8.716;2023-11-21T14:35:18;11.70;99.90
22544;DHT22;11438;52.044;8.716;2023-11-21T14:37:43;11.60;99.90
22544;DHT22;11438;52.044;8.716;2023-11-21T14:40:10;11.60;99.90
22544;DHT22;11438;52.044;8.716;2023-11-21T14:42:36;11.60;99.90
22544;DHT22;11438;52.044;8.716;2023-11-21T14:45:04;11.60;99.90
22544;DHT22;11438;52.044;8.716;2023-11-21T14:47:32;11.50;99.90
22544;DHT22;11438;52.044;8.716;2023-11-21T14:50:00;11.50;99.90
22544;DHT22;11438;52.044;8.716;2023-11-21T14:52:39;11.50;99.90
22544;DHT22;11438;52.044;8.716;2023-11-21T14:55:19;11.50;99.90
22544;DHT22;11438;52.044;8.716;2023-11-21T14:57:47;11.40;99.90
22544;DHT22;11438;52.044;8.716;2023-11-21T15:00:19;11.40;99.90
22544;DHT22;11438;52.044;8.716;2023-11-21T15:03:00;11.40;99.90
22544;DHT22;11438;52.044;8.716;2023-11-21T15:05:27;11.40;99.90
22544;DHT22;11438;52.044;8.716;2023-11-21T15:07:53;11.30;99.90
22544;DHT22;11438;52.044;8.716;2023-11-21T15:10:22;11.30;99.90
22544;DHT22;11438;52.044;8.716;2023-11-21T15:12:54;11.30;99.90
22544;DHT22;11438;52.044;8.716;2023-11-21T15:15:20;11.30;99.90
22544;DHT22;11438;52.044;8.716;2023-11-21T15:17:46;11.20;99.90
22544;DHT22;11438;52.044;8.716;2023-11-21T15:20:13;11.30;99.90
22544;DHT22;11438;52.044;8.716;2023-11-21T15:22:44;11.20;99.90
22544;DHT22;11438;52.044;8.716;2023-11-21T15:25:10;11.20;99.90
22544;DHT22;11438;52.044;8.716;2023-11-21T15:27:36;11.20;99.90
22544;DHT22;11438;52.044;8.716;2023-11-21T15:30:05;11.20;99.90
22544;DHT22;11438;52.044;8.716;2023-11-21T15:32:31;11.20;99.90
22544;DHT22;11438;52.044;8.716;2023-11-21T15:34:56;11.20;99.90
22544;DHT22;11438;52.044;8.716;2023-11-21T15:37:22;11.20;99.90
22544;DHT22;11438;52.044;8.716;2023-11-21T15:39:48;11.20;99.90
22544;DHT22;11438;52.044;8.716;2023-11-21T15:42:13;11.10;99.90
22544;DHT22;11438;52.044;8.716;2023-11-21T15:44:39;11.10;99.90
22544;DHT22;11438;52.044;8.716;2023-11-21T15:47:05;11.10;99.90